Time;durP1;ratioP1;P1;durP2;ratioP2;P2;SDS_P1;SDS_P2;PMS_P1;PMS_P2;Temp;Humidity;BMP_temperature;BMP_pressure;BME280_temperature;BME280_humidity;BME280_pressure;Samples;Min_cycle;Max_cycle;Signal;HPM_P1;HPM_P2
2023/12/17 00:04:25;;;;;;;19.60;10.20;;;;;;;6.34;64.91;100800.30;231849;204;136686;-59
2023/12/17 00:09:29;;;;;;;18.60;10.20;;;;;;;6.34;64.86;100796.96;232322;202;151268;-61
2023/12/17 00:14:32;;;;;;;22.40;10.20;;;;;;;6.34;64.90;100794.15;232170;203;137468;-61
2023/12/17 00:19:35;;;;;;;19.80;10.10;;;;;;;6.36;64.91;100781.41;232342;204;136775;-61
2023/12/17 00:24:38;;;;;;;19.80;9.40;;;;;;;6.32;64.96;100784.83;231930;204;150423;-61
2023/12/17 00:29:41;;;;;;;18.30;9.70;;;;;;;6.31;65.01;100761.23;231634;204;136972;-61
2023/12/17 00:34:45;;;;;;;15.80;8.70;;;;;;;6.36;65.20;100756.91;232213;203;137314;-61
2023/12/17 00:39:48;;;;;;;19.50;8.70;;;;;;;6.36;65.16;100746.17;232456;201;152059;-60
2023/12/17 00:44:51;;;;;;;18.80;8.50;;;;;;;6.41;65.01;100730.73;232236;204;139604;-61
2023/12/17 00:49:54;;;;;;;18.00;7.80;;;;;;;6.44;65.10;100729.98;232256;203;137538;-60
2023/12/17 00:54:58;;;;;;;18.50;8.20;;;;;;;6.50;64.87;100725.13;232195;200;151222;-60
2023/12/17 01:00:01;;;;;;;16.00;7.90;;;;;;;6.53;64.82;100729.47;232338;200;136886;-60
2023/12/17 01:05:05;;;;;;;14.80;8.10;;;;;;;6.57;64.83;100723.23;232291;201;137007;-61
2023/12/17 01:10:08;;;;;;;15.40;8.60;;;;;;;6.61;64.56;100693.69;232412;204;151475;-61
2023/12/17 01:15:12;;;;;;;17.30;8.30;;;;;;;6.58;64.59;100699.23;232502;203;137016;-61
2023/12/17 01:20:15;;;;;;;16.10;8.30;;;;;;;6.58;64.60;100710.33;232303;203;140132;-62
2023/12/17 01:25:18;;;;;;;16.70;7.80;;;;;;;6.61;64.47;100703.04;232244;201;151520;-60
2023/12/17 01:30:22;;;;;;;14.60;7.70;;;;;;;6.66;64.54;100697.83;232249;204;137837;-61
2023/12/17 01:35:25;;;;;;;14.70;7.00;;;;;;;6.69;64.55;100706.77;232330;203;137500;-60
2023/12/17 01:40:28;;;;;;;16.10;8.00;;;;;;;6.75;64.45;100710.71;232350;203;151387;-61
2023/12/17 01:45:31;;;;;;;15.30;6.90;;;;;;;6.81;64.35;100732.82;232357;203;137965;-60
2023/12/17 01:50:34;;;;;;;10.90;7.40;;;;;;;6.83;64.32;100744.08;231935;203;137132;-60
2023/12/17 01:55:38;;;;;;;13.90;7.40;;;;;;;6.88;64.20;100743.27;232298;203;151735;-61
2023/12/17 02:00:41;;;;;;;12.30;6.60;;;;;;;6.93;64.03;100742.83;232030;203;136963;-62
2023/12/17 02:05:47;;;;;;;13.00;6.70;;;;;;;6.96;63.80;100714.53;231516;204;137252;-60
2023/12/17 02:10:50;;;;;;;11.40;6.50;;;;;;;6.94;63.82;100695.15;232360;200;152125;-61
2023/12/17 02:15:53;;;;;;;13.40;6.80;;;;;;;6.93;63.70;100694.99;232407;204;136768;-62
2023/12/17 02:20:57;;;;;;;16.60;7.50;;;;;;;6.89;63.65;100696.30;232316;197;137263;-60
2023/12/17 02:26:00;;;;;;;12.40;6.40;;;;;;;6.91;63.77;100683.75;231931;189;151388;-60
2023/12/17 02:31:04;;;;;;;13.00;6.80;;;;;;;6.92;63.58;100680.72;232308;203;137644;-61
2023/12/17 02:36:08;;;;;;;13.80;7.00;;;;;;;6.91;63.50;100677.56;232135;197;137157;-60
2023/12/17 02:41:11;;;;;;;11.20;6.70;;;;;;;6.86;63.70;100672.56;232202;197;152360;-59
2023/12/17 02:46:14;;;;;;;13.10;6.80;;;;;;;6.77;63.94;100674.85;231809;203;137155;-60
2023/12/17 02:51:17;;;;;;;16.10;6.70;;;;;;;6.74;64.13;100667.87;232237;202;139493;-60
2023/12/17 02:56:20;;;;;;;13.70;7.00;;;;;;;6.76;64.23;100658.48;231708;197;151436;-61
2023/12/17 03:01:23;;;;;;;12.40;6.60;;;;;;;6.77;64.14;100655.98;231843;204;138276;-60
2023/12/17 03:06:26;;;;;;;13.20;6.70;;;;;;;6.71;64.27;100658.95;232010;204;137609;-60
2023/12/17 03:11:30;;;;;;;12.90;6.60;;;;;;;6.68;64.29;100644.52;232383;199;151429;-61
2023/12/17 03:16:33;;;;;;;13.80;7.00;;;;;;;6.61;64.41;100629.49;232363;204;138341;-61
2023/12/17 03:21:36;;;;;;;11.80;6.80;;;;;;;6.61;64.67;100631.08;232205;203;136952;-61
2023/12/17 03:26:39;;;;;;;11.30;6.30;;;;;;;6.63;64.52;100627.00;232400;197;152762;-61
2023/12/17 03:31:43;;;;;;;14.20;6.70;;;;;;;6.62;64.61;100619.80;232233;204;138029;-60
2023/12/17 03:36:46;;;;;;;10.90;6.60;;;;;;;6.68;64.60;100608.04;232335;197;137936;-63
2023/12/17 03:41:49;;;;;;;12.20;6.00;;;;;;;6.64;64.48;100591.53;231823;203;151340;-60
2023/12/17 03:46:52;;;;;;;10.50;5.80;;;;;;;6.54;64.63;100585.02;232325;204;136775;-61
2023/12/17 03:51:55;;;;;;;11.90;6.10;;;;;;;6.44;64.83;100582.24;232135;197;137144;-59
2023/12/17 03:56:58;;;;;;;12.70;6.90;;;;;;;6.34;65.04;100575.04;232354;203;151487;-60
2023/12/17 04:02:02;;;;;;;11.70;6.90;;;;;;;6.28;65.32;100580.63;231915;203;137372;-62
2023/12/17 04:07:06;;;;;;;12.00;6.40;;;;;;;6.25;65.41;100573.63;232169;201;136963;-62
2023/12/17 04:12:09;;;;;;;12.40;6.30;;;;;;;6.19;65.60;100565.84;232312;196;152016;-60
2023/12/17 04:17:12;;;;;;;16.30;7.30;;;;;;;6.08;65.97;100567.27;231951;203;138408;-60
2023/12/17 04:22:15;;;;;;;11.30;5.60;;;;;;;6.07;66.08;100560.06;232009;197;137984;-59
2023/12/17 04:27:19;;;;;;;12.90;6.80;;;;;;;6.05;66.22;100562.56;231540;200;151329;-60
2023/12/17 04:32:22;;;;;;;11.40;6.60;;;;;;;6.06;66.29;100568.55;232276;201;137770;-61
2023/12/17 04:37:25;;;;;;;12.50;6.90;;;;;;;6.04;66.38;100573.87;232149;196;136794;-59
2023/12/17 04:42:28;;;;;;;11.70;7.00;;;;;;;6.02;66.44;100578.66;232393;196;151260;-60
2023/12/17 04:47:35;;;;;;;14.60;7.00;;;;;;;6.00;66.55;100583.27;231963;204;137315;-61
2023/12/17 04:52:39;;;;;;;10.40;6.30;;;;;;;5.99;66.70;100570.42;232334;200;137182;-61
2023/12/17 04:57:42;;;;;;;10.00;6.00;;;;;;;5.93;67.01;100567.17;232233;204;152084;-60
2023/12/17 05:02:45;;;;;;;11.80;5.90;;;;;;;5.88;67.23;100567.95;232154;200;137589;-61
2023/12/17 05:07:48;;;;;;;13.60;6.60;;;;;;;5.91;67.20;100561.22;232175;204;137557;-62
2023/12/17 05:12:53;;;;;;;14.70;7.50;;;;;;;5.94;67.26;100563.48;232146;200;151609;-61
2023/12/17 05:17:56;;;;;;;14.80;6.80;;;;;;;5.93;67.31;100566.66;232270;196;137553;-60
2023/12/17 05:23:00;;;;;;;12.90;6.20;;;;;;;5.93;67.26;100563.84;232235;200;139282;-62
2023/12/17 05:28:03;;;;;;;10.40;5.60;;;;;;;5.99;67.54;100550.35;232262;204;151657;-63
2023/12/17 05:33:07;;;;;;;15.50;6.20;;;;;;;6.04;67.36;100552.02;232309;204;137840;-62
2023/12/17 05:38:10;;;;;;;12.80;6.30;;;;;;;6.06;67.29;100568.55;232328;200;137905;-62
2023/12/17 05:43:13;;;;;;;12.50;6.30;;;;;;;6.14;67.36;100569.96;232244;197;151742;-61
2023/12/17 05:48:16;;;;;;;9.20;5.70;;;;;;;6.23;67.02;100574.38;232150;204;138528;-60
2023/12/17 05:53:20;;;;;;;12.10;6.50;;;;;;;6.25;67.04;100581.03;232323;200;137019;-62
2023/12/17 05:58:32;;;;;;;8.80;5.90;;;;;;;6.30;66.98;100592.23;232309;201;152108;-60
2023/12/17 06:03:35;;;;;;;13.00;6.00;;;;;;;6.29;67.01;100603.86;231576;201;137036;-62
2023/12/17 06:08:38;;;;;;;10.60;5.70;;;;;;;6.32;66.95;100608.76;231443;197;138239;-60
2023/12/17 06:13:43;;;;;;;10.50;6.00;;;;;;;6.44;66.89;100605.52;232360;204;151152;-59
2023/12/17 06:18:48;;;;;;;11.20;6.30;;;;;;;6.53;66.66;100610.11;232227;198;138012;-59
2023/12/17 06:23:57;;;;;;;;;;;;;;;6.59;66.50;100617.36;232268;204;138832;-59
2023/12/17 06:29:01;;;;;;;10.40;6.20;;;;;;;6.61;66.30;100614.70;232342;196;152248;-60
2023/12/17 06:34:04;;;;;;;9.70;6.00;;;;;;;6.58;66.52;100625.34;232388;203;136941;-60
2023/12/17 06:39:09;;;;;;;9.40;5.90;;;;;;;6.59;66.35;100621.79;232324;204;137570;-60
2023/12/17 06:44:14;;;;;;;15.10;6.60;;;;;;;6.60;66.36;100619.85;232336;204;151809;-61
2023/12/17 06:49:17;;;;;;;13.80;6.30;;;;;;;6.56;66.53;100626.78;232328;201;137276;-57
2023/12/17 06:54:20;;;;;;;14.30;6.50;;;;;;;6.58;66.62;100629.73;231903;204;137298;-59
2023/12/17 06:59:24;;;;;;;9.30;5.90;;;;;;;6.66;66.67;100642.81;232248;204;151344;-59
2023/12/17 07:04:27;;;;;;;9.40;6.00;;;;;;;6.76;66.50;100643.48;232270;204;137952;-59
2023/12/17 07:09:30;;;;;;;10.00;5.80;;;;;;;6.85;66.24;100654.05;231918;197;137927;-60
2023/12/17 07:14:33;;;;;;;10.70;6.10;;;;;;;6.94;66.11;100661.46;232312;204;151451;-59
2023/12/17 07:19:36;;;;;;;10.60;6.40;;;;;;;6.98;66.02;100661.37;231896;204;136984;-59
2023/12/17 07:24:40;;;;;;;11.10;6.20;;;;;;;6.99;65.77;100656.96;232299;197;137626;-62
2023/12/17 07:29:43;;;;;;;8.10;5.40;;;;;;;6.94;65.87;100658.11;232288;197;151391;-61
2023/12/17 07:34:46;;;;;;;9.90;6.00;;;;;;;6.89;66.03;100654.15;232067;201;137184;-59
2023/12/17 07:39:49;;;;;;;10.70;5.70;;;;;;;6.92;66.35;100653.05;232528;203;139185;-57
2023/12/17 07:44:53;;;;;;;14.90;5.90;;;;;;;6.97;66.28;100651.85;232055;200;151633;-55
2023/12/17 07:49:57;;;;;;;13.40;6.50;;;;;;;7.01;66.19;100660.45;232154;204;138600;-58
2023/12/17 07:55:00;;;;;;;13.50;6.60;;;;;;;7.05;66.15;100651.85;232244;203;137047;-59
2023/12/17 08:00:04;;;;;;;12.70;6.90;;;;;;;7.11;66.21;100655.44;232482;203;151509;-58
2023/12/17 08:05:13;;;;;;;11.60;6.60;;;;;;;7.16;66.04;100651.98;232057;197;136974;-57
2023/12/17 08:10:16;;;;;;;11.30;6.30;;;;;;;7.18;66.05;100650.54;232357;204;137987;-58
2023/12/17 08:15:19;;;;;;;10.20;6.20;;;;;;;7.18;66.08;100647.53;232427;204;151769;-57
2023/12/17 08:20:22;;;;;;;14.80;7.00;;;;;;;7.19;66.09;100646.45;232193;200;136937;-58
2023/12/17 08:25:26;;;;;;;10.30;6.30;;;;;;;7.21;66.13;100646.23;232284;200;136902;-58
2023/12/17 08:30:29;;;;;;;10.20;5.70;;;;;;;7.23;66.28;100648.27;232223;200;152047;-59
2023/12/17 08:35:32;;;;;;;13.50;7.40;;;;;;;7.30;66.22;100641.96;231822;203;138582;-56
2023/12/17 08:40:39;;;;;;;11.00;6.40;;;;;;;7.38;66.12;100653.44;232364;203;137564;-58
2023/12/17 08:45:43;;;;;;;11.70;7.00;;;;;;;7.47;65.98;100648.11;232353;201;152731;-57
2023/12/17 08:50:46;;;;;;;13.30;7.00;;;;;;;7.51;65.98;100644.11;231906;196;138112;-58
2023/12/17 08:55:49;;;;;;;12.30;6.80;;;;;;;7.57;65.76;100644.86;232040;200;136901;-57
2023/12/17 09:00:52;;;;;;;11.80;6.60;;;;;;;7.61;65.80;100655.20;232220;204;152100;-58
2023/12/17 09:05:56;;;;;;;12.90;6.80;;;;;;;7.66;65.67;100662.49;231756;200;137047;-58
2023/12/17 09:10:59;;;;;;;12.70;6.40;;;;;;;7.62;65.68;100658.16;231927;200;137506;-57
2023/12/17 09:16:03;;;;;;;11.20;6.30;;;;;;;7.67;65.90;100662.11;232260;197;151749;-59
2023/12/17 09:21:06;;;;;;;9.80;5.30;;;;;;;7.73;65.78;100660.55;232246;200;140358;-57
2023/12/17 09:26:09;;;;;;;10.00;5.60;;;;;;;7.84;65.62;100658.86;231816;204;137345;-58
2023/12/17 09:31:13;;;;;;;12.30;5.60;;;;;;;7.97;65.56;100646.34;231851;200;151545;-58
2023/12/17 09:36:17;;;;;;;10.50;5.70;;;;;;;8.02;65.39;100648.33;232278;202;137406;-60
2023/12/17 09:41:20;;;;;;;6.90;5.00;;;;;;;8.08;65.31;100653.83;232062;201;137912;-58
2023/12/17 09:46:24;;;;;;;10.20;5.20;;;;;;;8.16;65.35;100654.16;232057;203;151780;-58
2023/12/17 09:51:28;;;;;;;7.70;5.20;;;;;;;8.20;65.33;100649.63;232517;200;137722;-58
2023/12/17 09:56:32;;;;;;;10.40;4.80;;;;;;;8.23;65.29;100653.10;231566;204;137006;-58
2023/12/17 10:01:35;;;;;;;9.20;5.20;;;;;;;8.28;65.28;100653.70;232024;195;151298;-59
2023/12/17 10:06:38;;;;;;;8.40;5.50;;;;;;;8.41;65.30;100661.49;231997;200;140449;-58
2023/12/17 10:11:41;;;;;;;10.00;5.30;;;;;;;8.58;65.02;100670.60;232346;204;136738;-59
2023/12/17 10:16:45;;;;;;;8.90;4.80;;;;;;;8.72;64.84;100669.11;232041;204;152014;-62
2023/12/17 10:21:48;;;;;;;10.00;4.80;;;;;;;8.94;64.36;100669.38;232032;201;137298;-59
2023/12/17 10:26:53;;;;;;;10.70;5.40;;;;;;;9.08;63.86;100661.89;231440;197;137348;-59
2023/12/17 10:31:56;;;;;;;10.80;5.60;;;;;;;9.27;63.81;100666.98;231841;203;151871;-60
2023/12/17 10:37:00;;;;;;;6.90;4.90;;;;;;;9.38;63.20;100660.80;232338;200;137631;-62
2023/12/17 10:42:05;;;;;;;8.90;5.30;;;;;;;9.41;62.75;100652.91;232300;201;136785;-61
2023/12/17 10:47:10;;;;;;;11.80;6.20;;;;;;;9.37;62.86;100654.64;232227;202;151275;-61
2023/12/17 10:52:14;;;;;;;8.10;5.60;;;;;;;9.31;62.91;100663.51;232150;203;137767;-61
2023/12/17 10:57:23;;;;;;;10.20;5.70;;;;;;;9.19;63.17;100665.81;232406;197;137674;-61
2023/12/17 11:02:26;;;;;;;10.10;6.00;;;;;;;9.12;63.39;100664.96;232243;204;152433;-61
2023/12/17 11:07:30;;;;;;;9.60;6.20;;;;;;;9.11;63.66;100660.20;232238;204;138418;-62
2023/12/17 11:12:41;;;;;;;13.00;6.30;;;;;;;9.11;63.60;100658.44;232257;200;137512;-62
2023/12/17 11:17:45;;;;;;;13.30;6.40;;;;;;;9.09;63.90;100653.02;231143;204;151894;-59
2023/12/17 11:22:50;;;;;;;11.10;6.50;;;;;;;9.08;64.08;100644.72;231986;203;137198;-61
2023/12/17 11:27:56;;;;;;;12.50;6.30;;;;;;;9.12;64.06;100645.67;232248;201;136965;-60
2023/12/17 11:33:00;;;;;;;11.10;6.30;;;;;;;9.14;64.04;100646.34;232376;204;153793;-61
2023/12/17 11:38:04;;;;;;;11.40;5.90;;;;;;;9.09;64.34;100641.31;232163;198;137494;-60
2023/12/17 11:43:07;;;;;;;10.40;6.20;;;;;;;9.19;64.34;100647.91;232456;203;137961;-60
2023/12/17 11:48:17;;;;;;;14.70;7.10;;;;;;;9.29;64.31;100640.35;232111;204;152600;-61
2023/12/17 11:53:23;;;;;;;10.10;6.20;;;;;;;9.42;64.15;100651.46;232169;204;136982;-58
2023/12/17 11:58:26;;;;;;;16.30;7.20;;;;;;;9.48;64.22;100658.00;232229;203;137278;-61
2023/12/17 12:03:30;;;;;;;11.80;6.80;;;;;;;9.52;63.85;100669.05;231558;200;151358;-61
2023/12/17 12:08:34;;;;;;;12.80;6.80;;;;;;;9.49;63.84;100672.67;232288;197;137798;-58
2023/12/17 12:13:40;;;;;;;14.10;7.40;;;;;;;9.45;63.81;100672.80;231293;197;138702;-58
2023/12/17 12:18:44;;;;;;;13.60;7.20;;;;;;;9.40;63.90;100666.25;232402;200;153723;-58
2023/12/17 12:23:50;;;;;;;12.70;7.60;;;;;;;9.35;63.97;100659.85;232322;203;137128;-57
2023/12/17 12:28:58;;;;;;;12.70;7.90;;;;;;;9.30;64.21;100662.83;232396;203;137920;-61
2023/12/17 12:34:04;;;;;;;12.50;7.70;;;;;;;9.29;64.21;100661.11;231693;204;151401;-61
2023/12/17 12:39:07;;;;;;;13.10;7.90;;;;;;;9.22;64.32;100663.41;232163;200;137038;-58
2023/12/17 12:44:15;;;;;;;111.80;83.80;;;;;;;9.23;64.45;100668.70;232120;196;137322;-46
2023/12/17 12:49:18;;;;;;;15.50;9.30;;;;;;;9.29;64.69;100669.05;232313;203;151532;-56
2023/12/17 12:54:22;;;;;;;10.70;7.40;;;;;;;9.29;64.46;100674.38;231972;203;139425;-58
2023/12/17 12:59:26;;;;;;;9.20;6.50;;;;;;;9.42;64.44;100680.16;232259;203;137945;-58
2023/12/17 13:04:29;;;;;;;11.10;7.40;;;;;;;9.46;64.23;100674.20;232382;204;151525;-58
2023/12/17 13:09:34;;;;;;;10.10;6.50;;;;;;;9.47;64.09;100669.00;232281;197;138365;-56
2023/12/17 13:14:37;;;;;;;111.50;76.70;;;;;;;9.45;64.03;100669.08;232145;204;139206;-59
2023/12/17 13:19:40;;;;;;;12.90;7.90;;;;;;;9.53;63.94;100676.46;231779;201;152514;-58
2023/12/17 13:24:44;;;;;;;11.90;6.60;;;;;;;9.48;63.82;100668.12;231688;203;137349;-59
2023/12/17 13:29:47;;;;;;;10.80;6.20;;;;;;;9.44;63.90;100669.29;232283;204;137999;-58
2023/12/17 13:34:50;;;;;;;8.70;5.90;;;;;;;9.37;63.94;100664.39;232360;203;158022;-61
2023/12/17 13:39:53;;;;;;;8.90;6.90;;;;;;;9.27;64.14;100661.31;232352;204;140195;-59
2023/12/17 13:44:57;;;;;;;9.80;6.50;;;;;;;9.27;64.23;100666.09;232277;201;137178;-58
2023/12/17 13:50:01;;;;;;;9.80;6.70;;;;;;;9.27;64.35;100661.31;232235;204;152446;-59
2023/12/17 13:55:07;;;;;;;11.50;7.10;;;;;;;9.23;64.35;100651.52;232281;203;137374;-59
2023/12/17 14:00:12;;;;;;;10.40;6.60;;;;;;;9.21;64.50;100645.58;232291;204;137433;-59
2023/12/17 14:05:16;;;;;;;14.80;8.60;;;;;;;9.19;64.55;100649.35;232282;202;151872;-56
2023/12/17 14:10:20;;;;;;;194.50;139.20;;;;;;;9.23;64.86;100646.39;232283;203;138124;-58
2023/12/17 14:15:23;;;;;;;14.60;7.30;;;;;;;9.35;64.73;100635.92;231376;204;138689;-59
2023/12/17 14:20:27;;;;;;;12.20;6.20;;;;;;;9.40;64.39;100629.40;232161;200;151514;-60
2023/12/17 14:25:30;;;;;;;10.50;6.50;;;;;;;9.36;64.37;100629.88;232209;203;138053;-59
2023/12/17 14:30:44;;;;;;;11.70;6.80;;;;;;;9.39;64.42;100634.55;232221;200;137843;-61
2023/12/17 14:35:49;;;;;;;9.90;7.20;;;;;;;9.42;64.36;100633.95;231678;202;151602;-59
2023/12/17 14:40:52;;;;;;;16.50;7.50;;;;;;;9.42;64.34;100638.38;232226;202;137412;-61
2023/12/17 14:45:55;;;;;;;10.90;7.30;;;;;;;9.42;64.23;100637.30;232161;204;137757;-61
2023/12/17 14:50:59;;;;;;;12.00;7.60;;;;;;;9.36;64.15;100638.20;231771;196;152605;-58
2023/12/17 14:56:02;;;;;;;12.90;7.50;;;;;;;9.25;64.40;100628.80;232132;200;136896;-57
2023/12/17 15:01:05;;;;;;;27.80;15.80;;;;;;;9.20;64.92;100621.50;232194;204;137979;-57
2023/12/17 15:06:09;;;;;;;14.60;8.90;;;;;;;9.20;64.67;100617.62;231816;204;151639;-57
2023/12/17 15:11:14;;;;;;;23.10;14.00;;;;;;;9.14;64.75;100621.00;231969;197;137126;-57
2023/12/17 15:16:17;;;;;;;14.60;9.00;;;;;;;9.07;64.96;100620.86;232317;201;137008;-59
2023/12/17 15:21:20;;;;;;;13.40;8.50;;;;;;;8.94;65.21;100627.23;232352;197;152497;-65
2023/12/17 15:26:24;;;;;;;69.20;56.60;;;;;;;8.86;65.35;100629.44;232136;201;137938;-63
2023/12/17 15:31:28;;;;;;;137.10;88.30;;;;;;;8.86;65.83;100631.76;231959;203;137899;-59
2023/12/17 15:36:38;;;;;;;15.70;10.00;;;;;;;8.88;66.17;100630.08;232287;200;151962;-60
2023/12/17 15:41:41;;;;;;;13.60;8.10;;;;;;;8.91;65.70;100625.22;232228;203;138511;-61
2023/12/17 15:46:45;;;;;;;16.10;9.00;;;;;;;8.97;65.45;100619.89;232182;201;137571;-61
2023/12/17 15:51:48;;;;;;;12.60;8.90;;;;;;;9.00;65.07;100615.21;232414;204;151160;-62
2023/12/17 15:56:51;;;;;;;198.20;136.50;;;;;;;8.94;65.28;100609.20;231909;199;136953;-64
2023/12/17 16:01:54;;;;;;;17.90;12.10;;;;;;;8.98;65.50;100610.49;232111;200;137644;-61
2023/12/17 16:06:57;;;;;;;15.50;10.10;;;;;;;9.01;65.18;100618.73;232156;204;151383;-60
2023/12/17 16:12:01;;;;;;;14.80;9.60;;;;;;;8.89;64.92;100612.72;231977;204;137135;-62
2023/12/17 16:17:04;;;;;;;17.50;10.50;;;;;;;8.77;65.17;100606.01;232320;203;138060;-61
2023/12/17 16:22:08;;;;;;;16.70;10.50;;;;;;;8.70;65.44;100605.11;232466;204;151350;-61
2023/12/17 16:27:14;;;;;;;16.10;10.40;;;;;;;8.61;65.53;100610.34;232185;204;137499;-61
2023/12/17 16:32:17;;;;;;;14.10;10.80;;;;;;;8.52;65.76;100605.48;232192;197;137027;-62
2023/12/17 16:37:20;;;;;;;17.90;11.00;;;;;;;8.43;66.20;100595.83;232226;203;151693;-61
2023/12/17 16:42:23;;;;;;;129.90;91.60;;;;;;;8.38;66.51;100587.63;232315;203;137715;-62
2023/12/17 16:47:27;;;;;;;17.80;11.20;;;;;;;8.45;66.47;100581.61;232274;204;138868;-60
2023/12/17 16:52:30;;;;;;;17.30;10.60;;;;;;;8.44;66.30;100585.90;232313;203;151377;-60
2023/12/17 16:57:33;;;;;;;22.20;11.80;;;;;;;8.40;66.47;100584.06;232416;203;136935;-63
2023/12/17 17:02:36;;;;;;;22.10;12.40;;;;;;;8.37;66.59;100580.23;231765;204;138576;-60
2023/12/17 17:07:39;;;;;;;17.70;11.00;;;;;;;8.34;66.65;100573.77;231816;197;151532;-62
2023/12/17 17:12:42;;;;;;;17.30;11.60;;;;;;;8.29;66.72;100565.58;231928;204;137535;-60
2023/12/17 17:17:45;;;;;;;22.00;11.90;;;;;;;8.22;66.85;100569.84;231277;204;137362;-62
2023/12/17 17:22:49;;;;;;;22.50;12.50;;;;;;;8.15;67.00;100571.10;232038;203;151430;-59
2023/12/17 17:27:52;;;;;;;19.30;12.10;;;;;;;8.07;67.25;100563.03;232139;201;140667;-61
2023/12/17 17:32:55;;;;;;;249.70;169.00;;;;;;;8.02;67.55;100564.92;232293;204;136662;-60
2023/12/17 17:37:59;;;;;;;20.40;14.00;;;;;;;8.07;68.05;100567.26;231685;201;151497;-63
2023/12/17 17:43:02;;;;;;;265.60;184.40;;;;;;;8.14;67.68;100568.31;231601;204;137420;-62
2023/12/17 17:48:05;;;;;;;22.40;14.40;;;;;;;8.25;67.51;100567.46;232077;200;138444;-61
2023/12/17 17:53:10;;;;;;;20.30;14.00;;;;;;;8.25;66.97;100569.05;232201;201;151603;-62
2023/12/17 17:58:13;;;;;;;26.50;13.90;;;;;;;8.15;67.16;100571.99;232255;197;139744;-61
2023/12/17 18:03:16;;;;;;;20.80;13.20;;;;;;;8.02;67.43;100566.33;231386;204;137157;-59
2023/12/17 18:08:20;;;;;;;23.90;14.70;;;;;;;7.94;67.72;100560.54;231801;202;151425;-59
2023/12/17 18:13:25;;;;;;;25.40;15.10;;;;;;;7.89;67.77;100545.13;231841;204;137488;-61
2023/12/17 18:18:28;;;;;;;24.40;14.70;;;;;;;7.82;68.09;100551.13;231696;204;137975;-61
2023/12/17 18:23:32;;;;;;;24.20;14.60;;;;;;;7.81;68.01;100552.03;232255;201;151965;-64
2023/12/17 18:28:35;;;;;;;26.40;15.80;;;;;;;7.81;68.07;100548.70;232131;200;138408;-61
2023/12/17 18:33:38;;;;;;;26.20;15.80;;;;;;;7.85;68.03;100537.46;232308;204;137318;-61
2023/12/17 18:38:44;;;;;;;30.30;19.60;;;;;;;7.92;68.53;100535.16;232314;201;152872;-62
2023/12/17 18:43:48;;;;;;;28.00;16.60;;;;;;;7.94;67.89;100533.17;232207;197;137234;-62
2023/12/17 18:48:52;;;;;;;27.00;16.30;;;;;;;7.87;67.67;100520.45;232368;203;137222;-61
2023/12/17 18:53:55;;;;;;;27.60;16.50;;;;;;;7.82;67.89;100521.98;232211;201;151085;-62
2023/12/17 18:58:58;;;;;;;26.60;15.90;;;;;;;7.72;67.89;100511.45;232231;196;137530;-61
2023/12/17 19:04:02;;;;;;;26.80;15.80;;;;;;;7.66;68.19;100515.35;231379;200;137142;-61
2023/12/17 19:09:08;;;;;;;28.70;16.10;;;;;;;7.71;68.30;100512.58;231974;203;151918;-62
2023/12/17 19:14:12;;;;;;;27.80;15.80;;;;;;;7.76;68.05;100499.02;231942;196;138063;-60
2023/12/17 19:19:15;;;;;;;29.30;16.50;;;;;;;7.78;67.99;100502.31;231815;197;140019;-62
2023/12/17 19:24:18;;;;;;;26.10;15.20;;;;;;;7.77;67.84;100508.52;231912;203;151549;-61
2023/12/17 19:29:22;;;;;;;26.90;15.60;;;;;;;7.74;67.82;100503.98;232090;200;140463;-62
2023/12/17 19:34:25;;;;;;;27.10;15.90;;;;;;;7.74;67.72;100507.89;232289;197;136698;-62
2023/12/17 19:39:28;;;;;;;25.60;15.50;;;;;;;7.75;67.66;100525.02;232339;204;151232;-63
2023/12/17 19:44:32;;;;;;;27.50;15.00;;;;;;;7.76;67.60;100516.33;232069;204;137465;-62
2023/12/17 19:49:35;;;;;;;24.10;13.80;;;;;;;7.76;67.56;100525.52;232397;203;138027;-62
2023/12/17 19:54:38;;;;;;;23.10;13.60;;;;;;;7.82;67.47;100522.70;232216;200;151694;-62
2023/12/17 19:59:42;;;;;;;24.10;13.10;;;;;;;7.94;67.12;100516.71;232231;203;138228;-62
2023/12/17 20:04:48;;;;;;;22.00;13.50;;;;;;;8.02;66.64;100501.63;232225;197;137147;-62
2023/12/17 20:09:51;;;;;;;23.90;14.20;;;;;;;8.05;66.51;100499.98;232288;200;152763;-62
2023/12/17 20:14:55;;;;;;;25.50;13.20;;;;;;;8.09;66.40;100494.91;232344;203;137323;-63
2023/12/17 20:19:59;;;;;;;20.60;12.50;;;;;;;8.05;66.22;100496.27;231891;204;137531;-63
2023/12/17 20:25:03;;;;;;;21.90;12.10;;;;;;;8.06;66.21;100505.08;232320;197;151788;-61
2023/12/17 20:30:07;;;;;;;22.70;13.00;;;;;;;8.11;66.00;100501.05;231929;201;137956;-62
2023/12/17 20:35:11;;;;;;;21.50;12.20;;;;;;;8.09;65.93;100504.27;232274;203;137036;-62
2023/12/17 20:40:16;;;;;;;20.60;11.90;;;;;;;8.09;65.91;100506.41;232496;203;152248;-62
2023/12/17 20:45:19;;;;;;;21.30;12.40;;;;;;;8.11;65.78;100500.48;232368;203;137123;-62
2023/12/17 20:50:23;;;;;;;23.40;13.50;;;;;;;8.12;65.62;100496.59;231973;197;137442;-61
2023/12/17 20:55:26;;;;;;;22.90;12.50;;;;;;;8.12;65.38;100489.34;231563;200;151306;-62
2023/12/17 21:00:30;;;;;;;19.50;10.80;;;;;;;8.13;65.50;100481.36;232044;200;137249;-62
2023/12/17 21:05:33;;;;;;;17.80;10.30;;;;;;;8.24;65.30;100483.70;232215;204;137848;-62
2023/12/17 21:10:37;;;;;;;20.80;11.20;;;;;;;8.33;64.94;100475.66;232026;204;151890;-62
2023/12/17 21:15:41;;;;;;;18.90;10.70;;;;;;;8.42;64.75;100473.84;231908;204;137312;-64
2023/12/17 21:20:44;;;;;;;20.30;9.80;;;;;;;8.47;64.39;100465.89;232069;200;137978;-61
2023/12/17 21:25:48;;;;;;;18.70;10.00;;;;;;;8.47;64.25;100462.73;232267;198;151217;-63
2023/12/17 21:30:51;;;;;;;20.50;10.20;;;;;;;8.47;64.04;100448.02;231774;197;137346;-63
2023/12/17 21:35:54;;;;;;;19.20;10.00;;;;;;;8.45;63.97;100443.30;231596;200;137054;-64
2023/12/17 21:40:57;;;;;;;17.90;9.30;;;;;;;8.44;64.01;100447.05;232039;204;151741;-61
2023/12/17 21:46:01;;;;;;;15.80;9.00;;;;;;;8.45;63.97;100438.71;232342;200;137254;-63
2023/12/17 21:51:04;;;;;;;16.20;8.50;;;;;;;8.44;63.86;100429.91;232178;204;138737;-62
2023/12/17 21:56:07;;;;;;;17.40;9.30;;;;;;;8.43;63.80;100427.27;231862;204;151459;-62
2023/12/17 22:01:10;;;;;;;18.00;9.10;;;;;;;8.44;63.75;100426.89;232181;202;138491;-62
2023/12/17 22:06:14;;;;;;;16.90;8.80;;;;;;;8.41;63.72;100434.95;232277;204;137098;-63
2023/12/17 22:11:17;;;;;;;18.40;8.90;;;;;;;8.42;63.72;100436.31;232024;203;151401;-61
2023/12/17 22:16:20;;;;;;;14.60;8.40;;;;;;;8.41;63.59;100430.89;231859;203;136884;-61
2023/12/17 22:21:23;;;;;;;16.80;8.30;;;;;;;8.38;63.67;100431.13;232416;204;136649;-61
2023/12/17 22:26:29;;;;;;;17.10;9.50;;;;;;;8.37;63.64;100429.92;231679;204;151575;-61
2023/12/17 22:31:33;;;;;;;14.30;8.90;;;;;;;8.32;63.70;100436.42;231746;203;137273;-61
2023/12/17 22:36:36;;;;;;;20.10;9.70;;;;;;;8.26;63.87;100435.02;232231;204;137845;-61
2023/12/17 22:41:40;;;;;;;17.40;9.30;;;;;;;8.24;63.84;100431.73;232197;197;152666;-62
2023/12/17 22:46:43;;;;;;;15.20;9.00;;;;;;;8.21;63.82;100419.61;232326;200;136574;-61
2023/12/17 22:51:46;;;;;;;17.20;9.40;;;;;;;8.13;63.83;100420.37;231350;197;136935;-60
2023/12/17 22:56:49;;;;;;;15.70;9.30;;;;;;;8.07;63.92;100415.77;231845;200;152551;-59
2023/12/17 23:01:52;;;;;;;17.50;9.10;;;;;;;8.06;63.99;100409.63;232226;200;140706;-60
2023/12/17 23:06:56;;;;;;;14.40;8.20;;;;;;;8.09;64.04;100415.90;232366;204;137771;-61
2023/12/17 23:11:59;;;;;;;15.30;7.60;;;;;;;8.12;63.94;100412.28;232208;201;151530;-61